createdAt,value
2024-02-27T00:02:21.562Z,5.47
2024-02-27T00:04:49.061Z,5.88
2024-02-27T00:07:16.786Z,6.30
2024-02-27T00:09:48.444Z,5.03
2024-02-27T00:12:16.950Z,6.32
2024-02-27T00:14:44.453Z,5.97
2024-02-27T00:17:11.864Z,5.80
2024-02-27T00:19:39.307Z,4.75
2024-02-27T00:22:06.614Z,5.35
2024-02-27T00:24:34.836Z,5.88
2024-02-27T00:27:02.485Z,5.20
2024-02-27T00:29:33.089Z,4.63
2024-02-27T00:32:00.676Z,5.68
2024-02-27T00:34:28.141Z,4.63
2024-02-27T00:36:55.562Z,4.57
2024-02-27T00:39:23.370Z,4.82
2024-02-27T00:41:52.983Z,4.40
2024-02-27T00:44:22.227Z,4.55
2024-02-27T00:46:49.622Z,4.13
2024-02-27T00:49:17.098Z,4.05
2024-02-27T00:51:44.518Z,3.60
2024-02-27T00:54:12.055Z,5.85
2024-02-27T00:56:39.462Z,3.80
2024-02-27T00:59:07.311Z,3.53
2024-02-27T01:01:34.692Z,3.30
2024-02-27T01:04:02.061Z,3.78
2024-02-27T01:06:29.560Z,3.25
2024-02-27T01:08:56.970Z,3.15
2024-02-27T01:11:26.280Z,2.63
2024-02-27T01:13:53.558Z,2.13
2024-02-27T01:16:22.091Z,2.05
2024-02-27T01:18:49.530Z,2.30
2024-02-27T01:21:17.212Z,1.95
2024-02-27T01:23:44.602Z,1.85
2024-02-27T01:26:13.192Z,2.00
2024-02-27T01:28:40.481Z,1.35
2024-02-27T01:31:10.086Z,1.55
2024-02-27T01:33:37.559Z,1.63
2024-02-27T01:36:05.393Z,1.45
2024-02-27T01:38:32.775Z,1.10
2024-02-27T01:41:00.120Z,2.30
2024-02-27T01:43:27.866Z,1.50
2024-02-27T01:46:14.192Z,1.70
2024-02-27T01:48:43.227Z,1.45
2024-02-27T01:51:13.011Z,1.38
2024-02-27T01:53:42.708Z,1.60
2024-02-27T01:56:11.905Z,1.48
2024-02-27T01:58:40.287Z,1.58
2024-02-27T02:01:09.308Z,1.33
2024-02-27T02:03:39.717Z,1.50
2024-02-27T02:06:08.846Z,1.40
2024-02-27T02:08:36.678Z,1.60
2024-02-27T02:11:10.679Z,1.42
2024-02-27T02:13:38.711Z,0.95
2024-02-27T02:16:06.445Z,1.33
2024-02-27T02:18:34.082Z,1.48
2024-02-27T02:21:01.932Z,1.55
2024-02-27T02:23:31.429Z,1.55
2024-02-27T02:25:59.900Z,1.13
2024-02-27T02:28:27.856Z,1.40
2024-02-27T02:30:55.520Z,1.38
2024-02-27T02:33:25.170Z,1.05
2024-02-27T02:35:52.594Z,1.30
2024-02-27T02:38:20.796Z,1.55
2024-02-27T02:40:48.178Z,1.05
2024-02-27T02:43:15.572Z,0.98
2024-02-27T02:45:43.310Z,1.33
2024-02-27T02:48:10.886Z,1.80
2024-02-27T02:50:38.655Z,1.25
2024-02-27T02:53:06.024Z,1.00
2024-02-27T02:55:33.367Z,1.17
2024-02-27T02:58:00.701Z,1.42
2024-02-27T03:03:29.516Z,1.00
2024-02-27T03:05:56.982Z,1.13
2024-02-27T03:08:26.398Z,1.10
2024-02-27T03:10:53.795Z,4.25
2024-02-27T03:13:22.184Z,2.10
2024-02-27T03:15:49.586Z,1.10
2024-02-27T03:18:16.981Z,1.88
2024-02-27T03:20:44.325Z,1.20
2024-02-27T03:23:11.593Z,1.05
2024-02-27T03:25:38.980Z,1.20
2024-02-27T03:28:06.392Z,0.80
2024-02-27T03:30:33.706Z,0.90
2024-02-27T03:33:03.083Z,0.90
2024-02-27T03:35:30.419Z,0.68
2024-02-27T03:37:57.675Z,0.80
2024-02-27T03:40:24.964Z,0.65
2024-02-27T03:42:52.364Z,1.67
2024-02-27T03:45:19.872Z,0.88
2024-02-27T03:47:47.569Z,0.98
2024-02-27T03:50:15.037Z,0.77
2024-02-27T03:52:43.916Z,0.63
2024-02-27T03:55:11.477Z,0.70
2024-02-27T03:57:38.911Z,1.02
2024-02-27T04:00:07.538Z,0.65
2024-02-27T04:02:34.965Z,0.60
2024-02-27T04:05:02.406Z,0.80
2024-02-27T04:07:29.689Z,1.05
2024-02-27T04:09:56.993Z,0.68
2024-02-27T04:12:24.307Z,0.50
2024-02-27T04:14:51.719Z,0.80
2024-02-27T04:17:20.610Z,0.57
2024-02-27T04:19:48.029Z,0.63
2024-02-27T04:22:15.376Z,0.68
2024-02-27T04:24:42.724Z,0.45
2024-02-27T04:27:10.053Z,0.60
2024-02-27T04:29:37.352Z,0.30
2024-02-27T04:32:08.069Z,0.70
2024-02-27T04:34:35.398Z,1.38
2024-02-27T04:37:02.854Z,0.80
2024-02-27T04:39:30.394Z,0.82
2024-02-27T04:41:57.678Z,0.43
2024-02-27T04:44:24.998Z,0.85
2024-02-27T04:46:52.558Z,2.05
2024-02-27T04:49:22.347Z,0.60
2024-02-27T04:51:51.637Z,0.80
2024-02-27T04:54:19.128Z,0.65
2024-02-27T04:56:46.410Z,0.70
2024-02-27T04:59:13.726Z,0.70
2024-02-27T05:01:42.294Z,1.95
2024-02-27T05:04:11.371Z,0.95
2024-02-27T05:06:38.740Z,0.68
2024-02-27T05:09:06.667Z,0.82
2024-02-27T05:11:34.012Z,0.77
2024-02-27T05:14:01.651Z,0.80
2024-02-27T05:16:28.974Z,0.55
2024-02-27T05:18:56.395Z,0.80
2024-02-27T05:21:23.882Z,0.52
2024-02-27T05:23:51.222Z,0.63
2024-02-27T05:26:18.538Z,2.08
2024-02-27T05:28:45.801Z,1.55
2024-02-27T05:31:28.016Z,0.90
2024-02-27T05:33:57.261Z,0.77
2024-02-27T05:36:25.495Z,0.80
2024-02-27T05:38:55.247Z,1.13
2024-02-27T05:41:22.982Z,0.88
2024-02-27T05:43:52.697Z,0.63
2024-02-27T05:46:20.083Z,1.02
2024-02-27T05:48:47.388Z,0.73
2024-02-27T05:51:15.036Z,1.00
2024-02-27T05:53:42.432Z,0.73
2024-02-27T05:56:09.695Z,0.95
2024-02-27T05:58:36.966Z,1.00
2024-02-27T06:01:04.902Z,1.95
2024-02-27T06:03:36.033Z,1.10
2024-02-27T06:06:03.561Z,1.30
2024-02-27T06:08:30.998Z,0.80
2024-02-27T06:10:58.259Z,1.02
2024-02-27T06:13:27.546Z,0.75
2024-02-27T06:15:55.205Z,0.90
2024-02-27T06:18:22.565Z,0.90
2024-02-27T06:21:09.246Z,2.45
2024-02-27T06:23:36.886Z,1.30
2024-02-27T06:26:04.293Z,0.90
2024-02-27T06:28:33.584Z,1.05
2024-02-27T06:31:00.833Z,0.90
2024-02-27T06:33:28.254Z,1.10
2024-02-27T06:35:55.648Z,0.80
2024-02-27T06:38:22.912Z,1.30
2024-02-27T06:40:50.457Z,0.60
2024-02-27T06:43:17.856Z,0.90
2024-02-27T06:45:45.093Z,1.00
2024-02-27T06:48:14.648Z,0.90
2024-02-27T06:50:43.220Z,0.80
2024-02-27T06:53:11.535Z,4.47
2024-02-27T06:55:39.071Z,1.88
2024-02-27T06:58:06.852Z,1.00
2024-02-27T07:00:34.159Z,0.98
2024-02-27T07:03:02.404Z,1.27
2024-02-27T07:05:35.722Z,0.82
2024-02-27T07:08:07.529Z,0.73
2024-02-27T07:10:34.895Z,0.98
2024-02-27T07:13:02.258Z,0.98
2024-02-27T07:15:29.554Z,1.48
2024-02-27T07:17:56.982Z,0.95
2024-02-27T07:20:26.385Z,1.33
2024-02-27T07:22:54.443Z,1.15
2024-02-27T07:25:21.994Z,1.05
2024-02-27T07:27:50.256Z,1.05
2024-02-27T07:30:17.985Z,1.60
2024-02-27T07:32:45.968Z,1.13
2024-02-27T07:35:14.089Z,0.68
2024-02-27T07:37:41.532Z,1.17
2024-02-27T07:40:09.555Z,1.05
2024-02-27T07:42:37.077Z,1.23
2024-02-27T07:45:05.994Z,2.05
2024-02-27T07:47:33.496Z,1.17
2024-02-27T07:50:01.881Z,1.05
2024-02-27T07:52:29.205Z,1.10
2024-02-27T07:54:56.544Z,0.93
2024-02-27T07:57:26.149Z,1.60
2024-02-27T07:59:53.700Z,1.30
2024-02-27T08:02:23.021Z,1.00
2024-02-27T08:04:50.315Z,1.20
2024-02-27T08:07:17.823Z,1.00
2024-02-27T08:09:45.141Z,1.08
2024-02-27T08:12:13.236Z,1.30
2024-02-27T08:14:40.492Z,1.80
2024-02-27T08:17:07.977Z,1.40
2024-02-27T08:19:36.113Z,2.58
2024-02-27T08:22:05.310Z,1.20
2024-02-27T08:24:33.995Z,1.00
2024-02-27T08:27:04.635Z,1.40
2024-02-27T08:29:34.513Z,1.13
2024-02-27T08:32:01.827Z,1.23
2024-02-27T08:34:29.177Z,2.45
2024-02-27T08:36:57.644Z,1.58
2024-02-27T08:39:25.031Z,2.08
2024-02-27T08:41:52.326Z,1.42
2024-02-27T08:44:19.622Z,0.98
2024-02-27T08:46:46.868Z,2.50
2024-02-27T08:49:15.173Z,1.17
2024-02-27T08:51:43.755Z,0.95
2024-02-27T08:54:11.831Z,1.50
2024-02-27T08:56:42.171Z,1.35
2024-02-27T08:59:09.640Z,1.52
2024-02-27T09:01:37.014Z,1.30
2024-02-27T09:04:04.717Z,1.70
2024-02-27T09:06:32.283Z,1.52
2024-02-27T09:08:59.649Z,2.05
2024-02-27T09:11:28.128Z,1.40
2024-02-27T09:13:55.639Z,0.98
2024-02-27T09:16:22.893Z,0.93
2024-02-27T09:18:51.278Z,0.80
2024-02-27T09:21:18.734Z,1.08
2024-02-27T09:23:46.119Z,1.08
2024-02-27T09:26:13.426Z,2.35
2024-02-27T09:28:41.020Z,0.73
2024-02-27T09:31:13.906Z,1.27
2024-02-27T09:33:44.149Z,0.73
2024-02-27T09:36:11.891Z,1.10
2024-02-27T09:38:41.003Z,0.63
2024-02-27T09:41:22.775Z,1.15
2024-02-27T09:43:55.495Z,0.75
2024-02-27T09:46:24.542Z,1.13
2024-02-27T09:48:53.350Z,0.60
2024-02-27T09:51:23.795Z,0.80
2024-02-27T09:53:51.943Z,0.40
2024-02-27T09:56:20.300Z,0.80
2024-02-27T09:58:47.628Z,1.10
2024-02-27T10:01:20.131Z,0.50
2024-02-27T10:03:49.275Z,0.63
2024-02-27T10:06:21.024Z,0.38
2024-02-27T10:08:57.379Z,0.77
2024-02-27T10:11:26.066Z,0.25
2024-02-27T10:13:53.483Z,0.68
2024-02-27T10:16:22.988Z,0.50
2024-02-27T10:18:50.875Z,1.60
2024-02-27T10:21:19.386Z,1.30
2024-02-27T10:23:47.795Z,1.58
2024-02-27T10:26:16.296Z,0.65
2024-02-27T10:28:43.607Z,0.93
2024-02-27T10:31:12.530Z,0.60
2024-02-27T10:33:40.641Z,0.57
2024-02-27T10:36:09.958Z,0.73
2024-02-27T10:38:37.441Z,0.40
2024-02-27T10:41:04.945Z,0.63
2024-02-27T10:43:36.395Z,0.73
2024-02-27T10:46:04.073Z,0.65
2024-02-27T10:48:38.649Z,1.17
2024-02-27T10:51:13.247Z,0.65
2024-02-27T10:53:42.643Z,0.50
2024-02-27T10:56:10.052Z,0.65
2024-02-27T10:58:37.836Z,0.40
2024-02-27T11:01:08.187Z,0.65
2024-02-27T11:03:41.990Z,0.68
2024-02-27T11:06:15.218Z,0.40
2024-02-27T11:08:44.236Z,0.70
2024-02-27T11:11:13.123Z,1.08
2024-02-27T11:13:43.172Z,1.00
2024-02-27T11:16:15.088Z,0.90
2024-02-27T11:18:48.533Z,2.30
2024-02-27T11:21:17.739Z,0.82
2024-02-27T11:23:45.682Z,0.98
2024-02-27T11:26:13.934Z,1.20
2024-02-27T11:28:43.009Z,0.50
2024-02-27T11:31:11.937Z,0.90
2024-02-27T11:33:49.868Z,0.70
2024-02-27T11:36:17.600Z,0.77
2024-02-27T11:38:45.685Z,0.63
2024-02-27T11:41:17.448Z,0.75
2024-02-27T11:43:56.451Z,0.80
2024-02-27T11:46:32.817Z,0.57
2024-02-27T11:49:01.216Z,0.70
2024-02-27T11:51:33.977Z,0.93
2024-02-27T11:54:01.681Z,0.80
2024-02-27T11:56:30.160Z,0.70
2024-02-27T11:58:57.549Z,0.80
2024-02-27T12:01:25.184Z,0.70
2024-02-27T12:03:55.658Z,0.80
2024-02-27T12:06:23.190Z,0.68
2024-02-27T12:08:52.226Z,1.00
2024-02-27T12:11:22.229Z,0.80
2024-02-27T12:13:51.058Z,1.08
2024-02-27T12:16:25.753Z,1.20
2024-02-27T12:18:55.527Z,1.42
2024-02-27T12:21:35.596Z,1.67
2024-02-27T12:24:16.092Z,2.08
2024-02-27T12:26:44.608Z,4.22
2024-02-27T12:29:12.192Z,2.10
2024-02-27T12:31:39.936Z,2.58
2024-02-27T12:34:08.173Z,4.70
2024-02-27T12:36:36.821Z,3.42
2024-02-27T12:39:04.695Z,3.83
2024-02-27T12:41:32.325Z,3.55
2024-02-27T12:43:59.677Z,5.25
2024-02-27T12:46:28.527Z,5.47
2024-02-27T12:48:56.794Z,5.68
2024-02-27T12:51:24.811Z,5.13
2024-02-27T12:53:52.342Z,3.90
2024-02-27T12:56:20.634Z,5.07
2024-02-27T12:58:52.761Z,6.35
2024-02-27T13:01:20.123Z,4.78
2024-02-27T13:03:51.158Z,5.95
2024-02-27T13:06:18.704Z,4.82
2024-02-27T13:08:48.159Z,4.75
2024-02-27T13:11:15.657Z,4.03
2024-02-27T13:13:43.146Z,5.20
2024-02-27T13:16:10.574Z,4.88
2024-02-27T13:18:38.091Z,4.53
2024-02-27T13:21:05.745Z,4.07
2024-02-27T13:23:33.276Z,4.80
2024-02-27T13:26:01.861Z,5.35
2024-02-27T13:28:30.825Z,5.70
2024-02-27T13:30:58.907Z,5.63
2024-02-27T13:33:28.213Z,3.88
2024-02-27T13:35:56.407Z,5.35
2024-02-27T13:38:24.785Z,5.53
2024-02-27T13:40:55.582Z,5.85
2024-02-27T13:43:23.755Z,5.85
2024-02-27T13:45:52.196Z,6.63
2024-02-27T13:48:20.233Z,6.00
2024-02-27T13:50:47.711Z,6.13
2024-02-27T13:53:15.578Z,8.32
2024-02-27T13:55:44.565Z,4.65
2024-02-27T13:58:13.155Z,5.32
2024-02-27T14:00:40.568Z,4.38
2024-02-27T14:03:10.388Z,6.32
2024-02-27T14:05:38.422Z,5.40
2024-02-27T14:08:07.724Z,7.93
2024-02-27T14:10:39.595Z,4.38
2024-02-27T14:13:11.156Z,4.70
2024-02-27T14:15:38.697Z,5.40
2024-02-27T14:18:06.620Z,5.90
2024-02-27T14:20:34.924Z,5.97
2024-02-27T14:23:02.246Z,5.15
2024-02-27T14:25:34.051Z,5.85
2024-02-27T14:28:03.182Z,4.93
2024-02-27T14:30:30.804Z,4.20
2024-02-27T14:33:04.810Z,4.80
2024-02-27T14:35:34.464Z,4.30
2024-02-27T14:38:02.361Z,5.57
2024-02-27T14:40:32.079Z,4.72
2024-02-27T14:42:59.513Z,5.03
2024-02-27T14:45:28.018Z,4.47
2024-02-27T14:47:55.592Z,5.72
2024-02-27T14:50:23.403Z,3.80
2024-02-27T14:52:50.765Z,4.03
2024-02-27T14:55:18.139Z,5.35
2024-02-27T14:57:46.152Z,4.80
2024-02-27T15:00:18.544Z,5.32
2024-02-27T15:02:47.146Z,7.63
2024-02-27T15:05:14.780Z,4.32
2024-02-27T15:07:42.391Z,4.95
2024-02-27T15:10:09.990Z,5.40
2024-02-27T15:12:40.353Z,4.28
2024-02-27T15:15:08.181Z,4.50
2024-02-27T15:17:36.545Z,4.57
2024-02-27T15:20:04.635Z,4.68
2024-02-27T15:22:35.187Z,4.70
2024-02-27T15:25:05.218Z,5.55
2024-02-27T15:27:32.619Z,5.05
2024-02-27T15:30:00.004Z,4.20
2024-02-27T15:32:27.898Z,3.63
2024-02-27T15:34:56.138Z,5.47
2024-02-27T15:37:23.780Z,4.82
2024-02-27T15:39:53.099Z,4.38
2024-02-27T15:42:20.871Z,4.53
2024-02-27T15:44:48.170Z,5.60
2024-02-27T15:47:15.738Z,3.97
2024-02-27T15:49:43.283Z,4.45
2024-02-27T15:52:11.168Z,5.18
2024-02-27T15:54:38.618Z,4.70
2024-02-27T15:57:06.152Z,5.57
2024-02-27T15:59:33.534Z,4.70
2024-02-27T16:02:01.849Z,3.97
2024-02-27T16:04:39.904Z,4.50
2024-02-27T16:07:20.983Z,4.93
2024-02-27T16:09:48.374Z,6.45
2024-02-27T16:12:21.543Z,4.47
2024-02-27T16:14:54.910Z,3.88
2024-02-27T16:17:22.211Z,4.18
2024-02-27T16:19:51.640Z,3.88
2024-02-27T16:22:24.820Z,4.00
2024-02-27T16:24:52.291Z,4.80
2024-02-27T16:27:19.828Z,4.22
2024-02-27T16:29:47.316Z,3.95
2024-02-27T16:32:14.674Z,5.47
2024-02-27T16:34:42.144Z,4.18
2024-02-27T16:37:09.736Z,5.07
2024-02-27T16:39:37.301Z,5.20
2024-02-27T16:42:06.445Z,4.65
2024-02-27T16:44:36.880Z,4.38
2024-02-27T16:47:04.223Z,4.13
2024-02-27T16:49:31.743Z,3.67
2024-02-27T16:51:59.268Z,5.18
2024-02-27T16:54:26.661Z,4.25
2024-02-27T16:56:53.962Z,5.00
2024-02-27T16:59:24.214Z,6.20
2024-02-27T17:01:51.624Z,3.65
2024-02-27T17:04:19.868Z,4.13
2024-02-27T17:06:47.676Z,4.90
2024-02-27T17:09:16.130Z,4.45
2024-02-27T17:11:44.577Z,5.80
2024-02-27T17:14:12.299Z,4.15
2024-02-27T17:16:39.592Z,4.05
2024-02-27T17:19:07.153Z,4.10
2024-02-27T17:21:34.538Z,4.20
2024-02-27T17:24:01.849Z,5.03
2024-02-27T17:26:29.128Z,4.28
2024-02-27T17:28:56.629Z,4.30
2024-02-27T17:31:23.977Z,5.15
2024-02-27T17:33:51.410Z,5.03
2024-02-27T17:36:18.954Z,5.63
2024-02-27T17:38:46.618Z,4.40
2024-02-27T17:41:13.921Z,3.92
2024-02-27T17:43:41.313Z,5.18
2024-02-27T17:46:11.080Z,7.80
2024-02-27T17:48:38.901Z,7.40
2024-02-27T17:51:06.539Z,6.78
2024-02-27T17:53:33.908Z,6.45
2024-02-27T17:56:01.187Z,6.60
2024-02-27T17:58:30.323Z,7.82
2024-02-27T18:00:57.705Z,9.57
2024-02-27T18:03:25.094Z,7.35
2024-02-27T18:05:52.730Z,8.50
2024-02-27T18:08:20.055Z,10.52
2024-02-27T18:10:47.379Z,9.30
2024-02-27T18:13:14.685Z,10.73
2024-02-27T18:15:42.081Z,8.40
2024-02-27T18:18:09.520Z,7.75
2024-02-27T18:20:36.919Z,8.05
2024-02-27T18:23:05.637Z,8.43
2024-02-27T18:25:37.309Z,8.52
2024-02-27T18:28:05.069Z,9.15
2024-02-27T18:30:35.881Z,11.60
2024-02-27T18:33:07.793Z,11.52
2024-02-27T18:35:35.848Z,11.30
2024-02-27T18:38:04.210Z,9.80
2024-02-27T18:40:33.739Z,9.38
2024-02-27T18:43:01.677Z,7.90
2024-02-27T18:45:30.139Z,7.55
2024-02-27T18:47:57.770Z,10.23
2024-02-27T18:50:25.082Z,8.32
2024-02-27T18:52:52.500Z,10.48
2024-02-27T18:55:20.403Z,8.27
2024-02-27T18:57:47.736Z,6.13
2024-02-27T19:00:15.491Z,8.70
2024-02-27T19:02:42.838Z,10.18
2024-02-27T19:05:11.247Z,8.27
2024-02-27T19:07:39.789Z,9.18
2024-02-27T19:10:09.011Z,7.93
2024-02-27T19:12:36.637Z,9.02
2024-02-27T19:15:05.136Z,9.85
2024-02-27T19:17:32.564Z,9.00
2024-02-27T19:19:59.892Z,10.93
2024-02-27T19:22:27.900Z,10.27
2024-02-27T19:24:55.243Z,8.85
2024-02-27T19:27:23.660Z,9.40
2024-02-27T19:29:52.625Z,9.63
2024-02-27T19:32:19.932Z,8.48
2024-02-27T19:34:47.160Z,8.20
2024-02-27T19:37:14.442Z,7.10
2024-02-27T19:39:41.802Z,8.27
2024-02-27T19:42:09.266Z,7.30
2024-02-27T19:44:36.867Z,9.07
2024-02-27T19:47:07.861Z,9.73
2024-02-27T19:52:04.550Z,9.00
2024-02-27T19:54:32.243Z,9.00
2024-02-27T19:56:59.665Z,8.48
2024-02-27T19:59:28.186Z,8.07
2024-02-27T20:01:55.553Z,9.02
2024-02-27T20:04:22.885Z,9.90
2024-02-27T20:06:50.416Z,9.25
2024-02-27T20:09:17.869Z,9.02
2024-02-27T20:11:46.054Z,8.50
2024-02-27T20:14:15.574Z,7.38
2024-02-27T20:16:42.916Z,8.05
2024-02-27T20:19:10.279Z,6.50
2024-02-27T20:21:43.040Z,7.40
2024-02-27T20:24:11.504Z,8.88
2024-02-27T20:26:42.744Z,7.85
2024-02-27T20:29:10.098Z,8.43
2024-02-27T20:31:37.379Z,8.18
2024-02-27T20:34:05.061Z,9.65
2024-02-27T20:36:32.540Z,6.93
2024-02-27T20:38:59.947Z,7.03
2024-02-27T20:41:27.350Z,7.95
2024-02-27T20:43:54.596Z,7.35
2024-02-27T20:46:24.029Z,7.07
2024-02-27T20:48:54.783Z,6.88
2024-02-27T20:51:22.426Z,6.13
2024-02-27T20:53:49.775Z,11.13
2024-02-27T20:56:19.229Z,6.25
2024-02-27T20:58:47.668Z,6.07
2024-02-27T21:01:15.182Z,5.85
2024-02-27T21:03:43.371Z,6.50
2024-02-27T21:06:11.518Z,7.78
2024-02-27T21:08:40.220Z,6.32
2024-02-27T21:11:07.682Z,6.68
2024-02-27T21:13:34.981Z,8.57
2024-02-27T21:16:04.297Z,6.35
2024-02-27T21:18:31.723Z,8.80
2024-02-27T21:20:59.083Z,5.93
2024-02-27T21:23:26.357Z,7.97
2024-02-27T21:25:54.196Z,6.30
2024-02-27T21:28:22.336Z,8.18
2024-02-27T21:30:49.663Z,7.32
2024-02-27T21:33:18.485Z,6.28
2024-02-27T21:35:46.144Z,5.75
2024-02-27T21:38:13.467Z,7.63
2024-02-27T21:40:40.770Z,6.93
2024-02-27T21:43:08.044Z,7.60
2024-02-27T21:45:36.009Z,6.35
2024-02-27T21:48:03.544Z,7.22
2024-02-27T21:50:30.883Z,7.72
2024-02-27T21:52:58.388Z,9.43
2024-02-27T21:55:25.698Z,8.43
2024-02-27T21:57:53.024Z,8.18
2024-02-27T22:00:21.923Z,7.70
2024-02-27T22:02:49.317Z,6.97
2024-02-27T22:05:19.394Z,6.43
2024-02-27T22:07:47.791Z,8.52
2024-02-27T22:10:15.482Z,6.80
2024-02-27T22:12:42.909Z,9.40
2024-02-27T22:15:10.699Z,6.85
2024-02-27T22:17:38.188Z,7.60
2024-02-27T22:20:06.155Z,8.35
2024-02-27T22:22:33.508Z,9.80
2024-02-27T22:25:00.856Z,8.43
2024-02-27T22:27:28.118Z,8.77
2024-02-27T22:29:55.848Z,8.60
2024-02-27T22:32:23.228Z,10.15
2024-02-27T22:34:50.899Z,9.02
2024-02-27T22:37:18.134Z,8.68
2024-02-27T22:39:45.455Z,7.75
2024-02-27T22:42:12.830Z,7.30
2024-02-27T22:44:40.160Z,8.75
2024-02-27T22:47:07.546Z,7.65
2024-02-27T22:49:35.315Z,7.85
2024-02-27T22:52:02.626Z,7.45
2024-02-27T22:54:30.037Z,8.45
2024-02-27T22:56:57.367Z,8.48
2024-02-27T22:59:24.640Z,8.27
2024-02-27T23:01:52.193Z,6.15
2024-02-27T23:04:19.803Z,7.32
2024-02-27T23:06:47.470Z,9.85
2024-02-27T23:09:14.943Z,8.63
2024-02-27T23:11:43.266Z,8.52
2024-02-27T23:14:10.650Z,7.70
2024-02-27T23:16:43.468Z,7.43
2024-02-27T23:19:10.769Z,8.73
2024-02-27T23:21:38.151Z,8.98
2024-02-27T23:24:06.023Z,8.57
2024-02-27T23:26:33.384Z,8.02
2024-02-27T23:29:01.152Z,7.78
2024-02-27T23:31:28.710Z,7.53
2024-02-27T23:33:56.138Z,7.57
2024-02-27T23:36:23.531Z,8.45
2024-02-27T23:38:52.010Z,7.45
2024-02-27T23:41:19.504Z,8.10
2024-02-27T23:43:46.864Z,7.85
2024-02-27T23:46:15.979Z,6.68
2024-02-27T23:48:43.734Z,7.75
2024-02-27T23:51:11.506Z,9.07
2024-02-27T23:53:38.910Z,7.45
2024-02-27T23:56:06.484Z,7.05
2024-02-27T23:58:33.805Z,7.60
